createdAt,value
2017-09-24T00:01:17.435Z,65.87
2017-09-24T00:03:45.697Z,66.77
2017-09-24T00:06:13.232Z,76.20
2017-09-24T00:08:40.728Z,69.40
2017-09-24T00:11:08.265Z,67.93
2017-09-24T00:13:35.753Z,60.23
2017-09-24T00:16:04.206Z,59.93
2017-09-24T00:18:32.470Z,64.97
2017-09-24T00:21:00.738Z,52.30
2017-09-24T00:23:29.045Z,52.53
2017-09-24T00:25:56.544Z,68.47
2017-09-24T00:28:24.082Z,60.90
2017-09-24T00:30:52.390Z,59.17
2017-09-24T00:33:19.942Z,65.07
2017-09-24T00:35:47.436Z,60.40
2017-09-24T00:38:16.029Z,67.47
2017-09-24T00:40:43.527Z,66.40
2017-09-24T00:43:11.033Z,73.00
2017-09-24T00:45:38.579Z,72.83
2017-09-24T00:48:06.121Z,65.37
2017-09-24T00:50:34.585Z,63.27
2017-09-24T00:53:02.077Z,61.83
2017-09-24T00:55:30.777Z,59.10
2017-09-24T00:57:58.279Z,59.57
2017-09-24T01:00:25.780Z,57.43
2017-09-24T01:02:53.317Z,60.30
2017-09-24T01:05:20.814Z,53.57
2017-09-24T01:07:48.355Z,56.70
2017-09-24T01:10:15.851Z,55.30
2017-09-24T01:12:43.384Z,55.33
2017-09-24T01:15:10.889Z,48.83
2017-09-24T01:17:39.474Z,50.03
2017-09-24T01:20:06.977Z,48.97
2017-09-24T01:22:34.493Z,44.87
2017-09-24T01:25:02.043Z,44.40
2017-09-24T01:27:30.324Z,41.60
2017-09-24T01:32:48.994Z,42.10
2017-09-24T01:35:16.526Z,40.67
2017-09-24T01:37:44.052Z,42.07
2017-09-24T01:40:11.755Z,43.67
2017-09-24T01:42:39.261Z,46.93
2017-09-24T01:45:06.761Z,42.93
2017-09-24T01:47:34.298Z,48.43
2017-09-24T01:50:01.811Z,51.40
2017-09-24T01:52:30.230Z,61.13
2017-09-24T01:54:57.730Z,55.37
2017-09-24T01:57:26.011Z,62.00
2017-09-24T01:59:53.837Z,62.37
2017-09-24T02:02:22.102Z,60.60
2017-09-24T02:04:50.406Z,72.30
2017-09-24T02:07:17.906Z,69.27
2017-09-24T02:09:46.210Z,71.20
2017-09-24T02:12:13.714Z,80.87
2017-09-24T02:14:41.253Z,62.27
2017-09-24T02:17:09.520Z,66.37
2017-09-24T02:19:37.983Z,55.97
2017-09-24T02:22:06.306Z,60.37
2017-09-24T02:24:33.822Z,57.30
2017-09-24T02:27:01.355Z,52.77
2017-09-24T02:29:28.857Z,49.60
2017-09-24T02:31:56.403Z,50.57
2017-09-24T02:34:23.903Z,48.90
2017-09-24T02:36:51.546Z,55.07
2017-09-24T02:39:19.054Z,56.03
2017-09-24T02:41:47.331Z,48.43
2017-09-24T02:44:14.867Z,51.17
2017-09-24T02:46:43.131Z,49.73
2017-09-24T02:49:10.665Z,50.07
2017-09-24T02:51:38.170Z,47.23
2017-09-24T02:54:05.698Z,46.10
2017-09-24T02:56:33.230Z,46.57
2017-09-24T02:59:00.914Z,48.03
2017-09-24T03:01:28.421Z,45.60
2017-09-24T03:03:55.933Z,45.90
2017-09-24T03:06:24.241Z,53.83
2017-09-24T03:08:51.750Z,48.90
2017-09-24T03:11:19.300Z,51.10
2017-09-24T03:13:46.810Z,47.10
2017-09-24T03:16:14.706Z,48.40
2017-09-24T03:18:42.973Z,48.87
2017-09-24T03:21:10.478Z,51.73
2017-09-24T03:23:38.018Z,53.97
2017-09-24T03:26:06.285Z,53.73
2017-09-24T03:28:34.595Z,50.40
2017-09-24T03:31:02.096Z,51.27
2017-09-24T03:33:30.407Z,50.10
2017-09-24T03:35:57.914Z,52.37
2017-09-24T03:38:25.594Z,59.67
2017-09-24T03:40:53.113Z,68.83
2017-09-24T03:43:20.637Z,64.50
2017-09-24T03:45:48.950Z,57.93
2017-09-24T03:48:16.473Z,60.97
2017-09-24T03:50:44.733Z,65.20
2017-09-24T03:53:13.007Z,66.70
2017-09-24T03:55:40.537Z,74.13
2017-09-24T03:58:08.045Z,63.53
2017-09-24T04:00:36.353Z,55.73
2017-09-24T04:03:03.869Z,52.60
2017-09-24T04:05:31.741Z,59.97
2017-09-24T04:07:59.243Z,68.23
2017-09-24T04:10:26.754Z,72.57
2017-09-24T04:12:54.331Z,79.77
2017-09-24T04:15:21.862Z,63.77
2017-09-24T04:17:49.394Z,63.80
2017-09-24T04:20:16.905Z,58.80
2017-09-24T04:22:44.442Z,61.03
2017-09-24T04:25:12.719Z,80.10
2017-09-24T04:27:40.254Z,84.27
2017-09-24T04:30:07.766Z,61.20
2017-09-24T04:32:36.429Z,56.10
2017-09-24T04:35:04.717Z,76.13
2017-09-24T04:37:32.222Z,71.10
2017-09-24T04:39:59.761Z,69.03
2017-09-24T04:42:27.271Z,67.50
2017-09-24T04:44:54.815Z,74.30
2017-09-24T04:47:22.314Z,76.27
2017-09-24T04:49:50.634Z,74.67
2017-09-24T04:52:18.137Z,58.07
2017-09-24T04:54:45.682Z,66.97
2017-09-24T04:57:13.197Z,52.60
2017-09-24T04:59:40.706Z,49.43
2017-09-24T05:02:08.291Z,70.47
2017-09-24T05:04:35.825Z,64.73
2017-09-24T05:07:03.369Z,69.27
2017-09-24T05:09:30.870Z,66.17
2017-09-24T05:11:58.408Z,73.00
2017-09-24T05:14:25.919Z,72.00
2017-09-24T05:16:54.229Z,68.03
2017-09-24T05:19:22.373Z,56.97
2017-09-24T05:21:50.340Z,65.53
2017-09-24T05:24:17.847Z,66.97
2017-09-24T05:26:45.361Z,82.70
2017-09-24T05:29:12.904Z,90.07
2017-09-24T05:31:40.413Z,76.40
2017-09-24T05:34:07.949Z,72.90
2017-09-24T05:36:35.455Z,70.07
2017-09-24T05:39:02.966Z,77.27
2017-09-24T05:41:30.507Z,80.13
2017-09-24T05:43:58.235Z,66.70
2017-09-24T05:46:26.453Z,70.80
2017-09-24T05:48:54.722Z,58.10
2017-09-24T05:51:23.268Z,61.10
2017-09-24T05:53:51.653Z,47.50
2017-09-24T05:56:19.174Z,55.13
2017-09-24T05:58:46.706Z,59.47
2017-09-24T06:01:14.505Z,65.47
2017-09-24T06:03:42.082Z,51.07
2017-09-24T06:06:09.611Z,55.00
2017-09-24T06:08:37.173Z,53.17
2017-09-24T06:11:04.709Z,54.87
2017-09-24T06:13:32.247Z,46.47
2017-09-24T06:15:59.762Z,48.90
2017-09-24T06:18:27.422Z,46.70
2017-09-24T06:20:54.937Z,45.47
2017-09-24T06:23:23.223Z,42.60
2017-09-24T06:25:50.771Z,45.87
2017-09-24T06:28:18.296Z,52.40
2017-09-24T06:30:45.857Z,51.00
2017-09-24T06:33:13.394Z,47.30
2017-09-24T06:35:40.956Z,56.80
2017-09-24T06:38:08.482Z,49.97
2017-09-24T06:40:36.129Z,56.70
2017-09-24T06:43:04.453Z,61.47
2017-09-24T06:45:31.958Z,61.40
2017-09-24T06:47:59.502Z,58.40
2017-09-24T06:50:27.007Z,57.97
2017-09-24T06:52:55.526Z,56.13
2017-09-24T06:55:23.067Z,49.93
2017-09-24T06:57:50.759Z,54.00
2017-09-24T07:00:18.258Z,56.07
2017-09-24T07:02:45.773Z,52.30
2017-09-24T07:05:13.322Z,51.10
2017-09-24T07:07:40.829Z,46.30
2017-09-24T07:10:08.366Z,46.20
2017-09-24T07:12:35.874Z,44.67
2017-09-24T07:15:03.520Z,48.90
2017-09-24T07:17:31.077Z,48.33
2017-09-24T07:19:58.620Z,46.40
2017-09-24T07:22:26.136Z,43.00
2017-09-24T07:24:53.669Z,46.00
2017-09-24T07:27:21.219Z,50.47
2017-09-24T07:29:48.729Z,48.67
2017-09-24T07:32:16.277Z,44.37
2017-09-24T07:34:43.793Z,45.10
2017-09-24T07:37:11.507Z,46.83
2017-09-24T07:39:39.020Z,50.27
2017-09-24T07:42:07.306Z,44.73
2017-09-24T07:44:34.853Z,47.90
2017-09-24T07:47:02.361Z,45.13
2017-09-24T07:49:29.898Z,49.97
2017-09-24T07:51:57.405Z,47.97
2017-09-24T07:54:25.053Z,43.77
2017-09-24T07:56:52.596Z,49.43
2017-09-24T07:59:20.110Z,45.17
2017-09-24T08:01:47.661Z,46.30
2017-09-24T08:04:15.188Z,50.23
2017-09-24T08:06:43.504Z,49.83
2017-09-24T08:09:11.034Z,45.27
2017-09-24T08:11:38.580Z,44.70
2017-09-24T08:14:06.085Z,46.93
2017-09-24T08:16:34.557Z,45.27
2017-09-24T08:19:02.080Z,48.47
2017-09-24T08:21:30.371Z,44.83
2017-09-24T08:23:57.930Z,46.43
2017-09-24T08:26:25.461Z,44.60
2017-09-24T08:28:53.021Z,42.23
2017-09-24T08:31:20.526Z,48.87
2017-09-24T08:33:48.946Z,46.97
2017-09-24T08:36:17.174Z,47.43
2017-09-24T08:38:44.679Z,49.77
2017-09-24T08:41:12.242Z,46.50
2017-09-24T08:43:40.535Z,47.70
2017-09-24T08:46:08.074Z,48.50
2017-09-24T08:48:35.610Z,50.50
2017-09-24T08:51:03.165Z,48.50
2017-09-24T08:53:30.670Z,47.60
2017-09-24T08:55:58.368Z,50.20
2017-09-24T08:58:25.878Z,45.63
2017-09-24T09:00:54.171Z,49.43
2017-09-24T09:03:21.718Z,42.90
2017-09-24T09:05:49.224Z,41.50
2017-09-24T09:08:17.522Z,43.57
2017-09-24T09:10:45.070Z,45.97
2017-09-24T09:13:12.770Z,43.63
2017-09-24T09:15:41.047Z,43.87
2017-09-24T09:18:08.586Z,48.23
2017-09-24T09:20:36.886Z,40.87
2017-09-24T09:23:04.395Z,42.97
2017-09-24T09:25:32.702Z,42.30
2017-09-24T09:28:00.207Z,41.03
2017-09-24T09:30:27.738Z,43.47
2017-09-24T09:33:07.011Z,45.57
2017-09-24T09:35:34.562Z,44.70
2017-09-24T09:38:02.086Z,46.67
2017-09-24T09:40:30.558Z,46.83
2017-09-24T09:42:58.077Z,47.80
2017-09-24T09:45:37.561Z,46.63
2017-09-24T09:48:05.074Z,46.87
2017-09-24T09:50:32.576Z,45.27
2017-09-24T09:53:00.882Z,37.53
2017-09-24T09:55:28.390Z,42.93
2017-09-24T09:57:55.962Z,42.27
2017-09-24T10:00:23.475Z,40.80
2017-09-24T10:02:51.030Z,38.30
2017-09-24T10:05:18.530Z,37.03
2017-09-24T10:07:57.929Z,36.93
2017-09-24T10:10:25.440Z,38.77
2017-09-24T10:12:52.970Z,41.33
2017-09-24T10:15:20.484Z,39.90
2017-09-24T10:17:48.013Z,38.43
2017-09-24T10:20:15.554Z,38.87
2017-09-24T10:22:43.080Z,39.90
2017-09-24T10:25:10.630Z,39.23
2017-09-24T10:27:38.138Z,38.47
2017-09-24T10:30:17.646Z,36.50
2017-09-24T10:32:45.914Z,38.20
2017-09-24T10:35:14.182Z,38.03
2017-09-24T10:37:41.728Z,36.70
2017-09-24T10:40:09.230Z,38.40
2017-09-24T10:42:36.773Z,38.23
2017-09-24T10:45:04.288Z,36.37
2017-09-24T10:47:31.829Z,34.10
2017-09-24T10:49:59.341Z,37.13
2017-09-24T10:52:27.670Z,35.17
2017-09-24T10:54:55.173Z,36.40
2017-09-24T10:57:22.706Z,35.50
2017-09-24T10:59:50.253Z,35.80
2017-09-24T11:02:17.763Z,37.50
2017-09-24T11:04:46.117Z,38.07
2017-09-24T11:07:13.625Z,35.83
2017-09-24T11:09:41.157Z,36.40
2017-09-24T11:12:08.673Z,37.50
2017-09-24T11:14:36.224Z,38.67
2017-09-24T11:17:03.730Z,35.67
2017-09-24T11:19:31.257Z,35.33
2017-09-24T11:21:58.754Z,34.00
2017-09-24T11:24:26.253Z,37.67
2017-09-24T11:26:53.787Z,37.20
2017-09-24T11:29:21.306Z,31.80
2017-09-24T11:31:48.843Z,34.67
2017-09-24T11:34:16.347Z,36.70
2017-09-24T11:36:43.877Z,36.17
2017-09-24T11:39:11.414Z,33.97
2017-09-24T11:41:38.958Z,34.70
2017-09-24T11:44:08.120Z,35.37
2017-09-24T11:46:36.139Z,36.30
2017-09-24T11:49:03.741Z,31.57
2017-09-24T11:51:31.299Z,29.40
2017-09-24T11:53:58.829Z,28.03
2017-09-24T11:56:26.353Z,28.00
2017-09-24T11:58:54.058Z,27.20
2017-09-24T12:01:22.334Z,28.17
2017-09-24T12:03:49.916Z,27.63
2017-09-24T12:06:17.432Z,26.40
2017-09-24T12:08:44.965Z,26.80
2017-09-24T12:11:12.497Z,25.03
2017-09-24T12:13:40.758Z,25.80
2017-09-24T12:16:08.309Z,23.37
2017-09-24T12:18:35.826Z,25.00
2017-09-24T12:21:03.370Z,25.00
2017-09-24T12:23:30.893Z,23.77
2017-09-24T12:25:58.439Z,25.37
2017-09-24T12:28:25.946Z,25.87
2017-09-24T12:30:53.477Z,22.77
2017-09-24T12:33:20.982Z,27.20
2017-09-24T12:35:48.516Z,27.70
2017-09-24T12:38:16.022Z,28.30
2017-09-24T12:40:43.565Z,28.50
2017-09-24T12:43:11.062Z,22.57
2017-09-24T12:45:38.733Z,21.27
2017-09-24T12:48:07.006Z,22.63
2017-09-24T12:50:34.523Z,22.30
2017-09-24T12:53:02.050Z,25.20
2017-09-24T12:55:29.549Z,23.60
2017-09-24T12:57:57.130Z,24.43
2017-09-24T13:00:24.641Z,23.90
2017-09-24T13:02:52.181Z,24.40
2017-09-24T13:05:19.706Z,24.80
2017-09-24T13:07:47.251Z,24.07
2017-09-24T13:10:14.782Z,25.40
2017-09-24T13:12:43.090Z,24.40
2017-09-24T13:15:10.639Z,25.90
2017-09-24T13:17:38.170Z,23.33
2017-09-24T13:20:05.678Z,20.63
2017-09-24T13:22:33.999Z,21.00
2017-09-24T13:25:01.588Z,21.77
2017-09-24T13:27:29.873Z,21.13
2017-09-24T13:29:57.413Z,21.90
2017-09-24T13:32:24.910Z,21.40
2017-09-24T13:34:52.442Z,22.83
2017-09-24T13:37:19.971Z,20.47
2017-09-24T13:39:47.501Z,20.40
2017-09-24T13:42:15.061Z,19.37
2017-09-24T13:44:42.562Z,20.37
2017-09-24T13:47:10.866Z,21.87
2017-09-24T13:49:38.382Z,20.97
2017-09-24T13:52:05.914Z,19.80
2017-09-24T13:54:34.274Z,18.53
2017-09-24T13:57:02.562Z,17.13
2017-09-24T13:59:30.102Z,16.40
2017-09-24T14:01:57.616Z,16.73
2017-09-24T14:04:25.917Z,17.10
2017-09-24T14:06:53.421Z,18.17
2017-09-24T14:09:20.962Z,19.17
2017-09-24T14:11:48.469Z,18.53
2017-09-24T14:14:16.014Z,14.07
2017-09-24T14:16:43.515Z,16.20
2017-09-24T14:19:11.067Z,15.87
2017-09-24T14:21:38.593Z,15.40
2017-09-24T14:24:07.434Z,18.50
2017-09-24T14:26:34.946Z,16.60
2017-09-24T14:29:02.467Z,16.27
2017-09-24T14:31:30.008Z,17.93
2017-09-24T14:33:57.515Z,18.33
2017-09-24T14:36:25.070Z,18.30
2017-09-24T14:38:52.580Z,17.00
2017-09-24T14:41:20.755Z,17.40
2017-09-24T14:43:48.254Z,18.17
2017-09-24T14:46:15.803Z,16.33
2017-09-24T14:48:43.305Z,17.17
2017-09-24T14:51:10.841Z,16.50
2017-09-24T14:53:38.444Z,16.50
2017-09-24T14:56:06.033Z,13.77
2017-09-24T14:58:33.537Z,12.23
2017-09-24T15:01:01.946Z,13.33
2017-09-24T15:03:29.472Z,14.70
2017-09-24T15:05:57.048Z,15.87
2017-09-24T15:08:25.313Z,16.53
2017-09-24T15:10:53.720Z,17.70
2017-09-24T15:13:21.271Z,17.33
2017-09-24T15:15:48.882Z,18.00
2017-09-24T15:18:16.426Z,17.10
2017-09-24T15:20:43.917Z,17.00
2017-09-24T15:23:11.462Z,18.00
2017-09-24T15:25:38.987Z,18.93
2017-09-24T15:28:07.292Z,18.47
2017-09-24T15:30:35.582Z,18.00
2017-09-24T15:33:03.122Z,21.20
2017-09-24T15:35:31.422Z,19.60
2017-09-24T15:37:59.356Z,19.00
2017-09-24T15:40:26.933Z,17.30
2017-09-24T15:42:54.440Z,18.87
2017-09-24T15:45:22.025Z,17.83
2017-09-24T15:47:49.534Z,17.33
2017-09-24T15:50:17.061Z,17.70
2017-09-24T15:52:44.562Z,17.33
2017-09-24T15:55:12.216Z,18.37
2017-09-24T15:57:39.728Z,18.57
2017-09-24T16:00:07.242Z,18.77
2017-09-24T16:02:34.782Z,17.43
2017-09-24T16:05:03.066Z,16.67
2017-09-24T16:07:30.601Z,17.30
2017-09-24T16:09:58.105Z,16.80
2017-09-24T16:12:25.641Z,17.40
2017-09-24T16:14:53.140Z,17.07
2017-09-24T16:17:20.686Z,17.37
2017-09-24T16:19:48.190Z,17.90
2017-09-24T16:22:16.513Z,17.33
2017-09-24T16:24:44.012Z,18.80
2017-09-24T16:27:11.563Z,20.60
2017-09-24T16:29:39.071Z,22.27
2017-09-24T16:32:06.719Z,22.03
2017-09-24T16:34:34.250Z,22.10
2017-09-24T16:37:01.758Z,21.90
2017-09-24T16:39:29.642Z,22.30
2017-09-24T16:41:57.158Z,23.50
2017-09-24T16:44:24.697Z,22.67
2017-09-24T16:46:52.205Z,18.80
2017-09-24T16:49:20.525Z,18.83
2017-09-24T16:51:48.041Z,19.50
2017-09-24T16:54:15.573Z,21.60
2017-09-24T16:56:43.078Z,19.83
2017-09-24T16:59:10.618Z,20.00
2017-09-24T17:01:38.131Z,21.70
2017-09-24T17:04:05.642Z,22.00
2017-09-24T17:06:34.015Z,21.67
2017-09-24T17:09:01.518Z,22.43
2017-09-24T17:11:29.080Z,22.83
2017-09-24T17:13:57.350Z,24.37
2017-09-24T17:16:24.886Z,24.87
2017-09-24T17:18:53.185Z,25.80
2017-09-24T17:21:20.711Z,23.77
2017-09-24T17:23:48.248Z,26.73
2017-09-24T17:26:17.265Z,27.00
2017-09-24T17:28:44.787Z,26.17
2017-09-24T17:31:12.513Z,27.27
2017-09-24T17:33:40.781Z,30.37
2017-09-24T17:36:08.827Z,27.93
2017-09-24T17:38:37.469Z,33.27
2017-09-24T17:41:04.988Z,37.73
2017-09-24T17:43:32.542Z,31.90
2017-09-24T17:46:00.053Z,31.93
2017-09-24T17:48:27.593Z,31.50
2017-09-24T17:50:55.101Z,33.33
2017-09-24T17:53:22.634Z,27.30
2017-09-24T17:55:50.134Z,28.60
2017-09-24T17:58:17.694Z,28.40
2017-09-24T18:00:45.198Z,27.80
2017-09-24T18:03:13.493Z,27.63
2017-09-24T18:05:40.990Z,28.70
2017-09-24T18:08:09.644Z,28.90
2017-09-24T18:10:37.150Z,31.60
2017-09-24T18:13:04.645Z,30.10
2017-09-24T18:15:34.004Z,33.27
2017-09-24T18:18:01.566Z,36.77
2017-09-24T18:20:29.192Z,40.40
2017-09-24T18:22:56.759Z,40.70
2017-09-24T18:25:24.309Z,38.10
2017-09-24T18:27:51.810Z,37.53
2017-09-24T18:30:19.374Z,37.90
2017-09-24T18:32:46.877Z,40.23
2017-09-24T18:35:14.413Z,42.40
2017-09-24T18:37:41.916Z,43.97
2017-09-24T18:40:09.657Z,40.90
2017-09-24T18:42:37.181Z,44.80
2017-09-24T18:45:05.687Z,44.80
2017-09-24T18:47:33.570Z,44.07
2017-09-24T18:50:01.123Z,41.70
2017-09-24T18:52:28.804Z,39.93
2017-09-24T18:54:56.327Z,38.43
2017-09-24T18:57:24.266Z,42.97
2017-09-24T18:59:51.831Z,45.13
2017-09-24T19:02:20.172Z,44.93
2017-09-24T19:04:47.681Z,40.90
2017-09-24T19:07:15.271Z,44.00
2017-09-24T19:09:42.794Z,40.30
2017-09-24T19:12:11.095Z,49.50
2017-09-24T19:14:38.669Z,47.60
2017-09-24T19:17:06.566Z,48.00
2017-09-24T19:19:34.078Z,47.80
2017-09-24T19:22:01.627Z,45.90
2017-09-24T19:24:29.170Z,50.70
2017-09-24T19:26:56.672Z,49.30
2017-09-24T19:29:24.216Z,48.50
2017-09-24T19:31:51.714Z,46.37
2017-09-24T19:34:20.035Z,48.67
2017-09-24T19:36:47.537Z,52.03
2017-09-24T19:39:15.081Z,53.97
2017-09-24T19:41:42.601Z,44.97
2017-09-24T19:44:10.916Z,49.70
2017-09-24T19:46:38.430Z,48.83
2017-09-24T19:49:06.315Z,46.40
2017-09-24T19:51:33.823Z,58.00
2017-09-24T19:54:01.350Z,57.70
2017-09-24T19:56:29.653Z,55.20
2017-09-24T19:58:57.671Z,54.77
2017-09-24T20:01:26.203Z,48.80
2017-09-24T20:03:54.010Z,51.63
2017-09-24T20:06:21.549Z,52.00
2017-09-24T20:08:49.059Z,50.97
2017-09-24T20:11:16.682Z,51.70
2017-09-24T20:13:44.190Z,58.17
2017-09-24T20:16:11.732Z,60.53
2017-09-24T20:18:39.397Z,58.97
2017-09-24T20:21:06.930Z,49.63
2017-09-24T20:23:35.226Z,53.47
2017-09-24T20:26:02.914Z,46.07
2017-09-24T20:28:31.213Z,52.07
2017-09-24T20:30:58.900Z,46.53
2017-09-24T20:33:26.446Z,46.70
2017-09-24T20:35:54.001Z,46.70
2017-09-24T20:38:21.559Z,44.50
2017-09-24T20:40:49.062Z,45.30
2017-09-24T20:43:16.618Z,43.23
2017-09-24T20:45:44.240Z,40.97
2017-09-24T20:48:11.810Z,41.73
2017-09-24T20:50:39.398Z,42.37
2017-09-24T20:53:07.046Z,42.27
2017-09-24T20:55:34.562Z,42.07
2017-09-24T20:58:02.834Z,44.70
2017-09-24T21:00:31.405Z,40.73
2017-09-24T21:02:58.909Z,42.20
2017-09-24T21:05:26.454Z,40.17
2017-09-24T21:07:53.960Z,46.90
2017-09-24T21:10:21.490Z,40.77
2017-09-24T21:12:48.989Z,42.07
2017-09-24T21:15:16.685Z,44.73
2017-09-24T21:17:44.189Z,49.93
2017-09-24T21:20:11.699Z,44.10
2017-09-24T21:22:39.254Z,45.47
2017-09-24T21:25:06.755Z,47.73
2017-09-24T21:27:34.290Z,43.90
2017-09-24T21:30:02.559Z,40.63
2017-09-24T21:32:30.089Z,41.73
2017-09-24T21:34:58.356Z,38.73
2017-09-24T21:37:26.659Z,41.23
2017-09-24T21:39:54.166Z,39.63
2017-09-24T21:42:21.805Z,41.80
2017-09-24T21:44:50.073Z,45.03
2017-09-24T21:47:18.346Z,47.50
2017-09-24T21:49:45.878Z,39.70
2017-09-24T21:52:13.391Z,39.77
2017-09-24T21:54:40.932Z,43.10
2017-09-24T21:57:08.421Z,41.30
2017-09-24T21:59:35.961Z,41.30
2017-09-24T22:02:03.513Z,38.10
2017-09-24T22:04:31.059Z,35.00
2017-09-24T22:06:58.549Z,37.23
2017-09-24T22:09:26.355Z,36.63
2017-09-24T22:11:53.858Z,38.23
2017-09-24T22:14:21.359Z,36.13
2017-09-24T22:16:48.961Z,37.77
2017-09-24T22:19:17.223Z,38.73
2017-09-24T22:21:45.524Z,39.50
2017-09-24T22:24:13.035Z,40.00
2017-09-24T22:26:40.605Z,36.40
2017-09-24T22:29:08.109Z,39.60
2017-09-24T22:31:36.589Z,44.40
2017-09-24T22:34:04.853Z,37.83
2017-09-24T22:36:32.359Z,34.83
2017-09-24T22:38:59.889Z,38.10
2017-09-24T22:41:27.386Z,37.13
2017-09-24T22:43:54.927Z,37.13
2017-09-24T22:46:22.429Z,47.47
2017-09-24T22:48:49.983Z,45.20
2017-09-24T22:51:17.507Z,44.97
2017-09-24T22:53:45.104Z,47.50
2017-09-24T22:56:12.606Z,55.30
2017-09-24T22:58:40.517Z,54.50
2017-09-24T23:01:08.035Z,48.27
2017-09-24T23:03:36.306Z,48.93
2017-09-24T23:06:03.850Z,44.97
2017-09-24T23:08:32.114Z,40.90
2017-09-24T23:10:59.650Z,43.47
2017-09-24T23:13:27.946Z,44.10
2017-09-24T23:15:55.482Z,37.70
2017-09-24T23:18:22.985Z,37.77
2017-09-24T23:20:51.610Z,39.40
2017-09-24T23:23:19.105Z,32.43
2017-09-24T23:25:47.373Z,34.13
2017-09-24T23:28:15.670Z,29.00
2017-09-24T23:30:43.177Z,30.17
2017-09-24T23:33:11.478Z,31.00
2017-09-24T23:35:39.750Z,29.90
2017-09-24T23:38:07.285Z,29.53
2017-09-24T23:40:34.794Z,29.87
2017-09-24T23:43:03.502Z,30.93
2017-09-24T23:45:31.007Z,29.87
2017-09-24T23:47:59.269Z,31.60
2017-09-24T23:50:26.810Z,34.07
2017-09-24T23:52:55.074Z,33.23
2017-09-24T23:55:22.605Z,35.50
2017-09-24T23:57:50.106Z,36.33
